Time;durP1;ratioP1;P1;durP2;ratioP2;P2;SDS_P1;SDS_P2;PMS_P1;PMS_P2;Temp;Humidity;BMP_temperature;BMP_pressure;BME280_temperature;BME280_humidity;BME280_pressure;Samples;Min_cycle;Max_cycle;Signal;HPM_P1;HPM_P2
2022/10/27 00:00:46;;;;;;;6.47;4.60;;;13.50;99.90;;;;;;4979404;29;20468;-50
2022/10/27 00:03:15;;;;;;;5.80;4.83;;;13.50;99.90;;;;;;4978177;29;20528;-51
2022/10/27 00:05:43;;;;;;;4.93;4.43;;;13.50;99.90;;;;;;4978106;29;20536;-47
2022/10/27 00:08:14;;;;;;;6.30;4.30;;;13.50;99.90;;;;;;4976130;29;20479;-45
2022/10/27 00:10:43;;;;;;;5.20;4.70;;;13.50;99.90;;;;;;4979532;29;20440;-49
2022/10/27 00:13:10;;;;;;;5.77;4.40;;;13.50;99.90;;;;;;4976933;28;20452;-48
2022/10/27 00:15:37;;;;;;;5.07;4.23;;;13.50;99.90;;;;;;4979633;29;20443;-41
2022/10/27 00:18:09;;;;;;;6.73;5.13;;;13.50;99.90;;;;;;4979108;29;20512;-41
2022/10/27 00:20:36;;;;;;;9.87;5.00;;;13.50;99.90;;;;;;4979036;29;20464;-45
2022/10/27 00:23:03;;;;;;;7.27;4.90;;;13.40;99.90;;;;;;4978771;29;20482;-51
2022/10/27 00:25:30;;;;;;;7.47;4.83;;;13.40;99.90;;;;;;4978786;29;20472;-45
2022/10/27 00:27:57;;;;;;;6.50;5.07;;;13.40;99.90;;;;;;4977300;29;20494;-45
2022/10/27 00:30:27;;;;;;;5.37;4.83;;;13.30;99.90;;;;;;4978812;29;20436;-49
2022/10/27 00:32:56;;;;;;;7.43;3.70;;;13.30;99.90;;;;;;4973579;29;20471;-52
2022/10/27 00:35:24;;;;;;;6.17;4.83;;;13.30;99.90;;;;;;4978818;29;20451;-43
2022/10/27 00:37:51;;;;;;;7.60;5.03;;;13.30;99.90;;;;;;4977916;29;20463;-44
2022/10/27 00:40:21;;;;;;;4.83;4.33;;;13.30;99.90;;;;;;4978921;28;20432;-54
2022/10/27 00:42:48;;;;;;;4.77;3.90;;;13.20;99.90;;;;;;4978768;28;20443;-47
2022/10/27 00:45:15;;;;;;;7.23;4.90;;;13.20;99.90;;;;;;4978048;29;20555;-42
2022/10/27 00:47:42;;;;;;;9.20;4.50;;;13.20;99.90;;;;;;4978479;28;20495;-50
2022/10/27 00:50:14;;;;;;;4.87;4.30;;;13.10;99.90;;;;;;4978368;29;20454;-50
2022/10/27 00:52:45;;;;;;;5.77;4.43;;;13.10;99.90;;;;;;4978337;29;20438;-48
2022/10/27 00:55:15;;;;;;;7.57;5.03;;;13.10;99.90;;;;;;4978487;29;20436;-46
2022/10/27 00:57:43;;;;;;;11.50;4.90;;;13.10;99.90;;;;;;4978217;28;20466;-44
2022/10/27 01:00:11;;;;;;;5.23;3.57;;;13.10;99.90;;;;;;4978283;29;20442;-50
2022/10/27 01:02:39;;;;;;;5.60;4.50;;;13.00;99.90;;;;;;4973231;29;20458;-44
2022/10/27 01:05:11;;;;;;;7.17;4.50;;;13.00;99.90;;;;;;4970063;29;20448;-42
2022/10/27 01:07:38;;;;;;;4.60;4.13;;;13.00;99.90;;;;;;4976689;28;20428;-47
2022/10/27 01:10:07;;;;;;;7.80;3.87;;;13.00;99.90;;;;;;4978312;29;20502;-43
2022/10/27 01:12:34;;;;;;;7.17;4.57;;;13.00;99.90;;;;;;4978793;29;20440;-49
2022/10/27 01:15:01;;;;;;;11.50;4.73;;;13.00;99.90;;;;;;4970631;29;20503;-46
2022/10/27 01:17:39;;;;;;;6.80;5.23;;;13.00;99.90;;;;;;4978064;29;20435;-46
2022/10/27 01:20:46;;;;;;;6.67;4.80;;;13.00;99.90;;;;;;4978083;29;20428;-46
2022/10/27 01:23:23;;;;;;;8.70;3.90;;;13.00;99.90;;;;;;4977956;28;20532;-49
2022/10/27 01:26:14;;;;;;;5.10;3.80;;;13.00;99.90;;;;;;4978040;29;20495;-48
2022/10/27 01:29:11;;;;;;;7.30;4.77;;;12.90;99.90;;;;;;4977487;29;20491;-46
2022/10/27 01:31:43;;;;;;;11.00;4.80;;;12.90;99.90;;;;;;4977341;29;20428;-42
2022/10/27 01:34:15;;;;;;;11.10;4.53;;;12.90;99.90;;;;;;4977121;29;20482;-53
2022/10/27 01:36:48;;;;;;;5.30;4.57;;;12.90;99.90;;;;;;4977788;29;20428;-45
2022/10/27 01:39:19;;;;;;;7.40;4.73;;;13.00;99.90;;;;;;4977841;29;20432;-41
2022/10/27 01:41:50;;;;;;;5.00;4.03;;;13.00;99.90;;;;;;4970588;29;20456;-45
2022/10/27 01:44:21;;;;;;;5.80;3.97;;;13.00;99.90;;;;;;4970384;29;20870;-45
2022/10/27 01:46:51;;;;;;;4.77;4.03;;;13.00;99.90;;;;;;4975549;29;20471;-42
2022/10/27 01:49:19;;;;;;;9.50;4.50;;;13.00;99.90;;;;;;4976909;28;20494;-50
2022/10/27 01:51:46;;;;;;;5.60;4.43;;;13.00;99.90;;;;;;4972786;29;20451;-44
2022/10/27 01:54:13;;;;;;;7.53;4.97;;;13.00;99.90;;;;;;4977128;29;20531;-49
2022/10/27 01:57:02;;;;;;;6.50;4.43;;;12.90;99.90;;;;;;4977051;29;20458;-54
2022/10/27 01:59:42;;;;;;;5.80;4.07;;;12.90;99.90;;;;;;4977445;29;20554;-53
2022/10/27 02:02:21;;;;;;;7.47;4.90;;;12.90;99.90;;;;;;4977740;29;20430;-46
2022/10/27 02:04:57;;;;;;;8.00;3.73;;;12.90;99.90;;;;;;4978115;29;20944;-53
2022/10/27 02:07:31;;;;;;;12.00;4.83;;;12.90;99.90;;;;;;4971269;29;20444;-45
2022/10/27 02:10:04;;;;;;;8.33;4.27;;;12.90;99.90;;;;;;4977616;29;20464;-46
2022/10/27 02:12:33;;;;;;;5.47;3.40;;;12.90;99.90;;;;;;4977525;28;20448;-52
2022/10/27 02:15:03;;;;;;;7.10;4.40;;;12.90;99.90;;;;;;4968758;29;20454;-49
2022/10/27 02:17:37;;;;;;;6.67;4.20;;;12.90;99.90;;;;;;4976501;29;20471;-47
2022/10/27 02:20:09;;;;;;;6.40;4.60;;;12.90;99.90;;;;;;4977042;29;20443;-46
2022/10/27 02:22:37;;;;;;;4.90;3.93;;;12.90;99.90;;;;;;4976875;28;20814;-45
2022/10/27 02:25:05;;;;;;;8.73;4.20;;;12.90;99.90;;;;;;4977321;29;20460;-46
2022/10/27 02:27:40;;;;;;;8.40;5.10;;;12.90;99.90;;;;;;4976668;28;20454;-46
2022/10/27 02:30:08;;;;;;;6.30;3.77;;;12.90;99.90;;;;;;4976704;29;20562;-49
2022/10/27 02:32:40;;;;;;;6.57;4.40;;;12.80;99.90;;;;;;4977095;28;20507;-44
2022/10/27 02:35:13;;;;;;;5.77;4.10;;;12.80;99.90;;;;;;4969486;28;20531;-46
2022/10/27 02:37:45;;;;;;;10.17;4.80;;;12.90;99.90;;;;;;4970527;28;20894;-46
2022/10/27 02:40:12;;;;;;;5.03;4.23;;;12.80;99.90;;;;;;4975943;28;20463;-46
2022/10/27 02:42:39;;;;;;;5.30;4.30;;;12.80;99.90;;;;;;4976933;29;20471;-46
2022/10/27 02:45:07;;;;;;;7.03;4.00;;;12.80;99.90;;;;;;4973744;29;20454;-46
2022/10/27 02:47:37;;;;;;;6.43;4.87;;;12.80;99.90;;;;;;4967950;28;20468;-44
2022/10/27 02:50:09;;;;;;;5.10;4.60;;;12.80;99.90;;;;;;4976738;28;20499;-44
2022/10/27 02:52:39;;;;;;;6.70;4.57;;;12.70;99.90;;;;;;4976586;28;20447;-46
2022/10/27 02:55:09;;;;;;;8.03;5.07;;;12.70;99.90;;;;;;4976134;29;20515;-44
2022/10/27 02:57:39;;;;;;;4.70;3.97;;;12.80;99.90;;;;;;4975918;29;20428;-45
2022/10/27 03:00:07;;;;;;;11.00;4.37;;;12.80;99.90;;;;;;4976375;28;20860;-46
2022/10/27 03:02:34;;;;;;;5.83;4.03;;;12.80;99.90;;;;;;4976228;28;20454;-46
2022/10/27 03:05:03;;;;;;;6.27;4.13;;;12.80;99.90;;;;;;4976739;29;20443;-46
2022/10/27 03:07:30;;;;;;;7.37;4.47;;;12.70;99.90;;;;;;4976613;28;20444;-43
2022/10/27 03:09:57;;;;;;;7.13;4.40;;;12.80;99.90;;;;;;4976225;29;20490;-49
2022/10/27 03:12:24;;;;;;;6.67;3.93;;;12.70;99.90;;;;;;4976296;29;20475;-45
2022/10/27 03:14:51;;;;;;;7.50;4.40;;;12.80;99.90;;;;;;4976590;29;20471;-44
2022/10/27 03:17:17;;;;;;;5.57;4.47;;;12.70;99.90;;;;;;4976333;29;20498;-47
2022/10/27 03:19:46;;;;;;;8.63;4.90;;;12.70;99.90;;;;;;4967307;29;20447;-41
2022/10/27 03:22:15;;;;;;;5.20;4.70;;;12.70;99.90;;;;;;4976482;28;20499;-46
2022/10/27 03:24:41;;;;;;;10.07;4.30;;;12.70;99.90;;;;;;4975746;28;20471;-47
2022/10/27 03:27:08;;;;;;;8.17;4.60;;;12.70;99.90;;;;;;4976148;29;20917;-51
2022/10/27 03:29:35;;;;;;;5.50;4.10;;;12.70;99.90;;;;;;4970090;29;20487;-46
2022/10/27 03:32:02;;;;;;;7.97;5.47;;;12.70;99.90;;;;;;4975947;29;20427;-48
2022/10/27 03:34:34;;;;;;;5.07;3.80;;;12.60;99.90;;;;;;4975963;29;20451;-48
2022/10/27 03:37:02;;;;;;;6.83;4.23;;;12.60;99.90;;;;;;4964713;29;20478;-48
2022/10/27 03:39:30;;;;;;;11.83;5.40;;;12.60;99.90;;;;;;4971603;29;20520;-45
2022/10/27 03:41:56;;;;;;;8.13;4.33;;;12.60;99.90;;;;;;4976272;28;20447;-43
2022/10/27 03:44:23;;;;;;;5.40;4.17;;;12.50;99.90;;;;;;4976575;28;20799;-43
2022/10/27 03:46:50;;;;;;;6.67;4.47;;;12.50;99.90;;;;;;4976302;28;20527;-45
2022/10/27 03:49:17;;;;;;;8.97;4.73;;;12.60;99.90;;;;;;4979245;29;20485;-43
2022/10/27 03:51:44;;;;;;;5.40;4.27;;;12.50;99.90;;;;;;4979277;29;20439;-43
2022/10/27 03:54:11;;;;;;;7.17;4.57;;;12.60;99.90;;;;;;4979589;28;20499;-43
2022/10/27 03:56:39;;;;;;;8.20;5.23;;;12.50;99.90;;;;;;4979229;29;20523;-49
2022/10/27 03:59:08;;;;;;;5.90;4.27;;;12.60;99.90;;;;;;4972592;29;20437;-54
2022/10/27 04:01:39;;;;;;;8.40;5.20;;;12.50;99.90;;;;;;4978628;29;20562;-46
2022/10/27 04:04:05;;;;;;;6.50;4.50;;;12.50;99.90;;;;;;4979043;29;20421;-48
2022/10/27 04:06:32;;;;;;;12.13;4.10;;;12.40;99.90;;;;;;4978725;29;20447;-44
2022/10/27 04:08:59;;;;;;;6.43;3.97;;;12.50;99.90;;;;;;4973065;29;20439;-49
2022/10/27 04:11:26;;;;;;;7.23;4.00;;;12.40;99.90;;;;;;4972510;29;20444;-49
2022/10/27 04:13:54;;;;;;;6.70;5.30;;;12.40;99.90;;;;;;4978907;29;20482;-52
2022/10/27 04:16:20;;;;;;;25.57;6.40;;;12.40;99.90;;;;;;4978413;28;20458;-47
2022/10/27 04:18:47;;;;;;;5.63;4.37;;;12.40;99.90;;;;;;4969491;29;20466;-42
2022/10/27 04:21:15;;;;;;;5.67;4.40;;;12.40;99.90;;;;;;4979347;29;20432;-47
2022/10/27 04:23:42;;;;;;;9.73;5.60;;;12.40;99.90;;;;;;4979646;29;20446;-46
2022/10/27 04:26:09;;;;;;;6.20;5.20;;;12.40;99.90;;;;;;4979135;29;20599;-51
2022/10/27 04:28:36;;;;;;;4.93;4.13;;;12.40;99.90;;;;;;4972718;29;20863;-49
2022/10/27 04:31:07;;;;;;;5.60;4.10;;;12.40;99.90;;;;;;4978195;29;20484;-53
2022/10/27 04:33:34;;;;;;;5.23;4.23;;;12.40;99.90;;;;;;4979210;29;20432;-44
2022/10/27 04:36:00;;;;;;;11.10;4.83;;;12.30;99.90;;;;;;4978281;29;20459;-45
2022/10/27 04:38:27;;;;;;;6.37;5.43;;;12.30;99.90;;;;;;4973383;29;20558;-48
2022/10/27 04:40:59;;;;;;;8.17;5.60;;;12.30;99.90;;;;;;4977561;28;20465;-44
2022/10/27 04:43:26;;;;;;;5.37;4.47;;;12.40;99.90;;;;;;4978817;29;20428;-50
2022/10/27 04:45:52;;;;;;;5.83;4.37;;;12.40;99.90;;;;;;4978934;29;20466;-47
2022/10/27 04:48:21;;;;;;;6.67;4.67;;;12.30;99.90;;;;;;4979261;29;20466;-51
2022/10/27 04:50:47;;;;;;;7.50;5.00;;;12.30;99.90;;;;;;4977898;29;20515;-54
2022/10/27 04:53:16;;;;;;;7.63;5.43;;;12.20;99.90;;;;;;4978537;29;20432;-49
2022/10/27 04:55:46;;;;;;;10.03;4.73;;;12.20;99.90;;;;;;4976069;29;20471;-47
2022/10/27 04:58:13;;;;;;;6.30;4.97;;;12.20;99.90;;;;;;4972522;28;20516;-50
2022/10/27 05:00:41;;;;;;;6.30;4.80;;;12.20;99.90;;;;;;4978522;29;20448;-53
2022/10/27 05:03:09;;;;;;;5.80;4.93;;;12.30;99.90;;;;;;4978257;29;20463;-45
2022/10/27 05:05:37;;;;;;;9.80;5.50;;;12.20;99.90;;;;;;4978009;29;20440;-48
2022/10/27 05:08:04;;;;;;;9.73;4.73;;;12.20;99.90;;;;;;4977875;28;20452;-43
2022/10/27 05:10:32;;;;;;;8.20;4.57;;;12.20;99.90;;;;;;4970095;29;20535;-50
2022/10/27 05:12:59;;;;;;;7.03;4.80;;;12.20;99.90;;;;;;4978146;29;20520;-45
2022/10/27 05:15:26;;;;;;;8.67;5.47;;;12.20;99.90;;;;;;4977739;29;20478;-47
2022/10/27 05:17:56;;;;;;;11.67;4.50;;;12.20;99.90;;;;;;4977952;29;20479;-44
2022/10/27 05:20:23;;;;;;;10.13;4.57;;;12.20;99.90;;;;;;4977736;29;20495;-45
2022/10/27 05:22:51;;;;;;;5.33;4.90;;;12.20;99.90;;;;;;4977941;29;20448;-48
2022/10/27 05:25:18;;;;;;;7.27;4.90;;;12.20;99.90;;;;;;4977995;28;20450;-49
2022/10/27 05:27:44;;;;;;;5.90;4.60;;;12.20;99.90;;;;;;4977132;29;20495;-45
2022/10/27 05:30:13;;;;;;;5.80;4.90;;;12.20;99.90;;;;;;4977836;29;20499;-47
2022/10/27 05:32:40;;;;;;;8.23;4.93;;;12.20;99.90;;;;;;4978248;29;20467;-42
2022/10/27 05:35:08;;;;;;;6.10;4.60;;;12.20;99.90;;;;;;4978023;29;20944;-48
2022/10/27 05:37:35;;;;;;;6.37;4.80;;;12.20;99.90;;;;;;4978213;29;20444;-51
2022/10/27 05:40:05;;;;;;;5.37;4.60;;;12.20;99.90;;;;;;4977947;29;20537;-47
2022/10/27 05:42:34;;;;;;;8.07;5.47;;;12.20;99.90;;;;;;4969410;28;20543;-49
2022/10/27 05:45:03;;;;;;;9.73;6.67;;;12.20;99.90;;;;;;4977484;29;20472;-49
2022/10/27 05:47:30;;;;;;;8.43;5.40;;;12.20;99.90;;;;;;4977225;29;20459;-49
2022/10/27 05:49:57;;;;;;;8.00;5.03;;;12.20;99.90;;;;;;4977052;29;20539;-45
2022/10/27 05:52:24;;;;;;;6.00;4.73;;;12.20;99.90;;;;;;4977289;29;20862;-45
2022/10/27 05:54:52;;;;;;;11.80;6.73;;;12.20;99.90;;;;;;4977250;29;20452;-48
2022/10/27 05:57:20;;;;;;;6.63;5.00;;;12.20;99.90;;;;;;4977465;29;20459;-45
2022/10/27 05:59:47;;;;;;;5.00;3.80;;;12.20;99.90;;;;;;4968701;29;20444;-53
2022/10/27 06:02:13;;;;;;;5.47;4.50;;;12.20;99.90;;;;;;4977008;29;20448;-49
2022/10/27 06:04:40;;;;;;;6.13;5.10;;;12.20;99.90;;;;;;4976996;29;20444;-44
2022/10/27 06:07:09;;;;;;;7.37;5.63;;;12.20;99.90;;;;;;4977150;29;20444;-46
2022/10/27 06:09:35;;;;;;;6.60;4.37;;;12.30;99.90;;;;;;4976506;28;20471;-50
2022/10/27 06:12:02;;;;;;;5.93;4.63;;;12.30;99.90;;;;;;4975454;29;20487;-46
2022/10/27 06:14:30;;;;;;;10.03;5.20;;;12.30;99.90;;;;;;4971976;29;20452;-49
2022/10/27 06:16:58;;;;;;;6.13;5.43;;;12.30;99.90;;;;;;4977266;28;20443;-41
2022/10/27 06:19:25;;;;;;;7.40;5.60;;;12.40;99.90;;;;;;4977651;29;20459;-41
2022/10/27 06:21:52;;;;;;;7.10;5.80;;;12.40;99.90;;;;;;4977080;29;20458;-45
2022/10/27 06:24:18;;;;;;;6.87;5.37;;;12.40;99.90;;;;;;4976941;29;20424;-44
2022/10/27 06:26:45;;;;;;;7.57;5.40;;;12.40;99.90;;;;;;4976823;29;20448;-43
2022/10/27 06:29:12;;;;;;;7.83;5.60;;;12.50;99.90;;;;;;4976527;29;20458;-48
2022/10/27 06:31:41;;;;;;;10.13;5.57;;;12.50;99.90;;;;;;4977206;29;20472;-47
2022/10/27 06:34:08;;;;;;;5.70;4.20;;;12.60;99.90;;;;;;4976304;29;20548;-45
2022/10/27 06:36:35;;;;;;;7.63;4.97;;;12.60;99.90;;;;;;4976478;29;20439;-48
2022/10/27 06:39:03;;;;;;;11.97;5.47;;;12.60;99.90;;;;;;4977075;29;20462;-50
2022/10/27 06:41:30;;;;;;;8.93;5.47;;;12.60;99.90;;;;;;4976830;29;20464;-45
2022/10/27 06:43:57;;;;;;;8.50;6.10;;;12.70;99.90;;;;;;4976887;29;20452;-47
2022/10/27 06:46:25;;;;;;;6.30;5.03;;;12.70;99.90;;;;;;4976245;29;20463;-46
2022/10/27 06:48:53;;;;;;;8.17;5.70;;;12.70;99.90;;;;;;4976845;28;20444;-48
2022/10/27 06:51:20;;;;;;;14.20;5.90;;;12.80;99.90;;;;;;4976926;29;20471;-45
2022/10/27 06:53:48;;;;;;;8.07;5.90;;;12.80;99.90;;;;;;4977201;29;20536;-46
2022/10/27 06:56:16;;;;;;;5.73;5.13;;;12.90;99.90;;;;;;4976999;29;20443;-45
2022/10/27 06:58:43;;;;;;;8.20;4.80;;;12.90;99.90;;;;;;4976824;29;20491;-45
2022/10/27 07:01:10;;;;;;;8.87;5.20;;;13.00;99.90;;;;;;4976525;29;20446;-49
2022/10/27 07:03:40;;;;;;;6.17;5.57;;;13.00;99.90;;;;;;4976559;29;20444;-51
2022/10/27 07:06:08;;;;;;;8.70;5.57;;;13.00;99.90;;;;;;4970769;29;20472;-50
2022/10/27 07:08:34;;;;;;;10.87;5.23;;;13.10;99.90;;;;;;4973423;29;20456;-47
2022/10/27 07:11:01;;;;;;;5.60;5.10;;;13.10;99.90;;;;;;4969285;29;20482;-42
2022/10/27 07:13:30;;;;;;;13.23;6.30;;;13.10;99.90;;;;;;4976964;29;20459;-40
2022/10/27 07:15:57;;;;;;;7.60;5.13;;;13.20;99.90;;;;;;4976447;29;20426;-42
2022/10/27 07:18:24;;;;;;;7.10;5.50;;;13.20;99.90;;;;;;4976376;29;20460;-49
2022/10/27 07:20:52;;;;;;;7.77;5.50;;;13.30;99.90;;;;;;4977023;28;20440;-47
2022/10/27 07:23:20;;;;;;;7.13;5.60;;;13.30;99.90;;;;;;4980785;29;20464;-52
2022/10/27 07:25:48;;;;;;;6.40;5.10;;;13.40;99.90;;;;;;4980624;28;20449;-47
2022/10/27 07:28:16;;;;;;;9.00;5.60;;;13.40;99.90;;;;;;4980495;29;20435;-44
2022/10/27 07:30:43;;;;;;;14.23;7.00;;;13.50;99.90;;;;;;4980448;29;20518;-46
2022/10/27 07:33:11;;;;;;;9.93;5.30;;;13.60;99.90;;;;;;4980927;29;20430;-48
2022/10/27 07:35:40;;;;;;;8.30;6.37;;;13.70;99.90;;;;;;4980304;29;20489;-46
2022/10/27 07:38:07;;;;;;;8.97;6.47;;;13.80;99.90;;;;;;4980332;29;20467;-42
2022/10/27 07:40:35;;;;;;;8.63;5.97;;;13.80;99.90;;;;;;4980662;28;20475;-44
2022/10/27 07:43:03;;;;;;;12.50;6.27;;;13.90;99.90;;;;;;4980360;29;20478;-44
2022/10/27 07:45:31;;;;;;;10.10;5.60;;;14.00;99.90;;;;;;4980307;29;20503;-42
2022/10/27 07:48:01;;;;;;;8.30;6.47;;;14.10;99.90;;;;;;4980598;29;20482;-50
2022/10/27 07:50:31;;;;;;;9.70;6.73;;;14.20;99.90;;;;;;4979992;29;20479;-47
2022/10/27 07:52:59;;;;;;;10.43;7.00;;;14.30;99.90;;;;;;4980690;29;20440;-51
2022/10/27 07:55:28;;;;;;;11.00;6.20;;;14.50;99.90;;;;;;4980214;29;20436;-59
2022/10/27 07:58:09;;;;;;;6.70;6.10;;;14.50;99.90;;;;;;4980397;29;20442;-42
2022/10/27 08:00:39;;;;;;;12.00;6.83;;;14.60;99.90;;;;;;4973031;29;20463;-45
2022/10/27 08:03:07;;;;;;;9.33;5.70;;;14.70;99.90;;;;;;4980690;29;20439;-53
2022/10/27 08:05:35;;;;;;;6.90;6.20;;;14.80;99.90;;;;;;4980792;29;20444;-63
2022/10/27 08:08:03;;;;;;;6.60;5.80;;;15.00;99.90;;;;;;4980270;29;20478;-65
2022/10/27 08:10:31;;;;;;;6.37;5.63;;;15.10;99.90;;;;;;4971995;29;20949;-46
2022/10/27 08:12:58;;;;;;;9.80;5.80;;;15.20;99.90;;;;;;4979805;29;20515;-47
2022/10/27 08:15:26;;;;;;;7.07;4.70;;;15.30;99.90;;;;;;4979998;29;20512;-43
2022/10/27 08:17:54;;;;;;;6.20;5.00;;;15.40;99.90;;;;;;4979744;29;20428;-45
2022/10/27 08:20:22;;;;;;;10.60;5.70;;;15.50;99.90;;;;;;4979673;29;20443;-47
2022/10/27 08:22:55;;;;;;;6.67;5.40;;;15.50;99.90;;;;;;4980447;28;20436;-47
2022/10/27 08:25:22;;;;;;;6.90;5.10;;;15.60;99.90;;;;;;4980377;29;20938;-42
2022/10/27 08:27:49;;;;;;;9.13;6.23;;;15.70;99.90;;;;;;4979709;29;20428;-56
2022/10/27 08:30:16;;;;;;;7.40;5.63;;;15.80;99.90;;;;;;4979969;29;20454;-41
2022/10/27 08:32:44;;;;;;;10.00;6.20;;;15.90;99.90;;;;;;4978737;28;20428;-45
2022/10/27 08:35:12;;;;;;;8.43;4.83;;;15.90;99.90;;;;;;4980078;29;20458;-53
2022/10/27 08:37:39;;;;;;;6.10;4.30;;;15.90;99.90;;;;;;4979647;29;20453;-46
2022/10/27 08:40:07;;;;;;;8.07;6.07;;;16.00;99.90;;;;;;4979572;29;20436;-45
2022/10/27 08:42:43;;;;;;;7.10;5.47;;;16.00;99.90;;;;;;4980092;28;20511;-41
2022/10/27 08:45:16;;;;;;;6.33;5.50;;;16.10;99.90;;;;;;4980389;29;20428;-45
2022/10/27 08:47:44;;;;;;;7.03;5.10;;;16.20;99.90;;;;;;4979948;29;20491;-43
2022/10/27 08:50:14;;;;;;;10.20;6.27;;;16.20;99.90;;;;;;4980022;29;20471;-43
2022/10/27 08:52:44;;;;;;;6.47;5.50;;;16.30;99.90;;;;;;4974670;29;20452;-43
2022/10/27 08:55:22;;;;;;;8.53;5.03;;;16.30;99.90;;;;;;4979168;29;20464;-42
2022/10/27 08:57:55;;;;;;;5.37;4.10;;;16.30;99.90;;;;;;4979846;29;20905;-47
2022/10/27 09:00:22;;;;;;;9.60;5.83;;;16.30;99.90;;;;;;4979890;29;20484;-47
2022/10/27 09:03:19;;;;;;;8.67;5.30;;;16.40;99.90;;;;;;4979616;29;20471;-48
2022/10/27 09:05:59;;;;;;;5.70;5.10;;;16.50;99.90;;;;;;4978633;28;20428;-47
2022/10/27 09:08:35;;;;;;;8.10;4.93;;;16.60;99.90;;;;;;4979012;29;20468;-42
2022/10/27 09:11:15;;;;;;;6.20;4.47;;;16.70;99.90;;;;;;4980040;29;20451;-47
2022/10/27 09:13:57;;;;;;;8.20;5.03;;;16.90;99.90;;;;;;4979327;29;20428;-49
2022/10/27 09:16:33;;;;;;;7.50;4.93;;;17.10;99.90;;;;;;4979225;29;20416;-49
2022/10/27 09:19:04;;;;;;;5.33;4.83;;;17.30;99.90;;;;;;4979557;28;20427;-50
2022/10/27 09:21:34;;;;;;;6.70;5.07;;;17.50;99.90;;;;;;4979385;29;20483;-44
2022/10/27 09:24:06;;;;;;;8.43;5.43;;;17.60;99.90;;;;;;4978395;29;20442;-41
2022/10/27 09:26:33;;;;;;;10.27;5.30;;;17.90;99.90;;;;;;4978138;29;20470;-44
2022/10/27 09:29:04;;;;;;;13.33;7.03;;;18.50;99.90;;;;;;4978632;29;20451;-41
2022/10/27 09:31:38;;;;;;;8.33;4.30;;;19.40;99.90;;;;;;4978940;29;20475;-45
2022/10/27 09:34:15;;;;;;;6.07;4.13;;;20.40;99.90;;;;;;4977853;29;20475;-51
2022/10/27 09:36:43;;;;;;;8.97;5.30;;;21.30;99.90;;;;;;4978159;29;20735;-41
2022/10/27 09:39:10;;;;;;;6.67;4.47;;;22.00;99.90;;;;;;4978049;29;20467;-43
2022/10/27 09:41:37;;;;;;;10.53;6.47;;;22.60;99.90;;;;;;4977775;29;20424;-49
2022/10/27 09:44:13;;;;;;;6.17;4.17;;;23.20;99.90;;;;;;4978525;28;20539;-49
2022/10/27 09:46:42;;;;;;;6.70;4.43;;;23.80;99.90;;;;;;4979099;29;20969;-54
2022/10/27 09:49:10;;;;;;;4.80;4.20;;;24.30;99.90;;;;;;4978614;28;20436;-43
2022/10/27 09:51:43;;;;;;;5.23;4.23;;;24.70;99.90;;;;;;4978333;29;20526;-46
2022/10/27 09:54:29;;;;;;;5.70;4.67;;;25.30;99.90;;;;;;4978406;29;20508;-42
2022/10/27 09:57:02;;;;;;;9.33;5.33;;;25.50;99.90;;;;;;4978132;29;20463;-45
2022/10/27 09:59:30;;;;;;;6.60;4.43;;;25.60;99.90;;;;;;4977840;29;20500;-44
2022/10/27 10:01:58;;;;;;;5.33;4.10;;;25.40;99.90;;;;;;4977004;29;20918;-43
2022/10/27 10:04:31;;;;;;;6.17;5.13;;;25.10;99.90;;;;;;4978049;29;20489;-53
2022/10/27 10:06:59;;;;;;;6.30;4.20;;;24.70;99.90;;;;;;4978651;29;20424;-51
2022/10/27 10:09:29;;;;;;;6.97;4.43;;;24.60;99.90;;;;;;4978203;29;20511;-55
2022/10/27 10:12:24;;;;;;;10.73;4.20;;;24.50;99.90;;;;;;4977995;29;20464;-50
2022/10/27 10:14:51;;;;;;;5.27;4.00;;;24.60;99.90;;;;;;4978457;29;20448;-47
2022/10/27 10:17:24;;;;;;;8.30;4.20;;;24.80;99.90;;;;;;4977875;29;20443;-48
2022/10/27 10:19:53;;;;;;;7.57;4.80;;;24.90;99.90;;;;;;4977949;29;20450;-49
2022/10/27 10:22:26;;;;;;;6.10;3.90;;;25.00;99.90;;;;;;4977358;29;20439;-42
2022/10/27 10:24:53;;;;;;;5.30;3.87;;;25.00;99.90;;;;;;4977554;29;20444;-41
2022/10/27 10:27:28;;;;;;;4.53;3.67;;;25.00;99.90;;;;;;4978442;28;20439;-43
2022/10/27 10:29:57;;;;;;;4.60;3.53;;;24.90;99.90;;;;;;4977953;29;20451;-48
2022/10/27 10:32:26;;;;;;;4.93;3.63;;;24.80;99.90;;;;;;4978601;29;20472;-51
2022/10/27 10:34:55;;;;;;;5.43;3.53;;;24.70;99.90;;;;;;4978134;29;20492;-50
2022/10/27 10:37:31;;;;;;;4.03;3.63;;;24.50;99.90;;;;;;4978217;29;20484;-52
2022/10/27 10:40:27;;;;;;;4.80;3.00;;;24.50;99.90;;;;;;4977495;29;20440;-39
2022/10/27 10:43:06;;;;;;;5.00;3.50;;;24.30;99.90;;;;;;4973820;29;20450;-50
2022/10/27 10:45:35;;;;;;;4.63;3.40;;;24.30;99.90;;;;;;4977028;29;20423;-51
2022/10/27 10:48:06;;;;;;;3.57;2.73;;;24.20;99.90;;;;;;4977157;29;20467;-50
2022/10/27 10:50:45;;;;;;;8.60;3.60;;;24.20;99.90;;;;;;4977682;28;20415;-48
2022/10/27 10:53:25;;;;;;;3.43;3.13;;;24.20;99.90;;;;;;4977105;29;20481;-48
2022/10/27 10:55:54;;;;;;;6.27;3.10;;;24.40;99.90;;;;;;4978232;28;20861;-43
2022/10/27 10:58:23;;;;;;;9.03;5.80;;;24.40;99.90;;;;;;4980921;29;20511;-43
2022/10/27 11:00:55;;;;;;;6.27;3.27;;;24.30;99.90;;;;;;4981171;29;20467;-45
2022/10/27 11:03:24;;;;;;;4.57;3.33;;;24.10;99.90;;;;;;4981237;29;20435;-47
2022/10/27 11:05:59;;;;;;;5.83;3.20;;;23.90;99.90;;;;;;4980827;29;20468;-48
2022/10/27 11:08:33;;;;;;;15.20;3.50;;;23.60;99.90;;;;;;4981092;29;20433;-49
2022/10/27 11:11:01;;;;;;;5.00;3.17;;;23.40;99.90;;;;;;4980932;29;20415;-43
2022/10/27 11:13:37;;;;;;;5.10;4.70;;;23.10;99.90;;;;;;4980847;29;20535;-40
2022/10/27 11:16:12;;;;;;;4.43;3.07;;;22.90;99.90;;;;;;4981155;28;20463;-49
2022/10/27 11:18:49;;;;;;;37.57;16.87;;;22.70;99.90;;;;;;4981457;28;20494;-44
2022/10/27 11:21:26;;;;;;;7.60;4.40;;;22.50;99.90;;;;;;4981124;29;20444;-44
2022/10/27 11:23:57;;;;;;;6.30;3.10;;;22.30;99.90;;;;;;4981137;29;20453;-46
2022/10/27 11:26:29;;;;;;;5.27;4.30;;;22.10;99.90;;;;;;4981272;29;20436;-48
2022/10/27 11:29:03;;;;;;;3.63;3.10;;;22.00;99.90;;;;;;4980261;29;20429;-46
2022/10/27 11:31:38;;;;;;;6.17;3.80;;;21.80;99.90;;;;;;4980971;29;20493;-46
2022/10/27 11:34:14;;;;;;;6.87;3.30;;;21.60;99.90;;;;;;4980456;29;20429;-46
2022/10/27 11:36:46;;;;;;;3.90;2.87;;;21.40;99.90;;;;;;4980408;29;20464;-46
2022/10/27 11:39:18;;;;;;;5.03;2.57;;;21.20;99.90;;;;;;4980530;29;20451;-48
2022/10/27 11:41:49;;;;;;;3.83;2.60;;;21.20;99.90;;;;;;4980591;29;20503;-48
2022/10/27 11:44:26;;;;;;;5.97;3.87;;;21.10;99.90;;;;;;4979988;29;20463;-49
2022/10/27 11:46:58;;;;;;;3.50;2.53;;;21.00;99.90;;;;;;4980174;29;20432;-44
2022/10/27 11:49:36;;;;;;;5.97;2.90;;;21.00;99.90;;;;;;4979700;29;20463;-42
2022/10/27 11:52:12;;;;;;;2.30;2.13;;;20.90;99.90;;;;;;4980432;29;20466;-44
2022/10/27 11:54:41;;;;;;;5.57;2.57;;;20.80;99.90;;;;;;4979862;29;20503;-49
2022/10/27 11:57:24;;;;;;;4.70;2.57;;;20.80;99.90;;;;;;4980429;29;20447;-46
2022/10/27 12:00:08;;;;;;;3.57;3.23;;;20.80;99.90;;;;;;4979917;29;20436;-53
2022/10/27 12:02:55;;;;;;;3.67;3.17;;;20.90;99.90;;;;;;4980418;29;20491;-49
2022/10/27 12:05:31;;;;;;;2.70;2.50;;;20.90;99.90;;;;;;4980322;29;20447;-52
2022/10/27 12:08:10;;;;;;;4.60;3.10;;;20.90;99.90;;;;;;4970624;28;20471;-47
2022/10/27 12:10:48;;;;;;;5.00;3.20;;;20.80;99.90;;;;;;4980642;28;20463;-50
2022/10/27 12:13:21;;;;;;;4.53;2.97;;;20.80;99.90;;;;;;4980141;29;20456;-45
2022/10/27 12:15:55;;;;;;;5.10;3.10;;;20.80;99.90;;;;;;4980092;29;20405;-47
2022/10/27 12:18:29;;;;;;;4.90;3.10;;;20.80;99.90;;;;;;4979789;28;20459;-43
2022/10/27 12:20:59;;;;;;;3.20;2.87;;;20.90;99.90;;;;;;4971242;29;20468;-46
2022/10/27 12:23:34;;;;;;;5.80;3.10;;;21.00;99.90;;;;;;4980244;29;20424;-46
2022/10/27 12:26:07;;;;;;;8.40;2.50;;;21.00;99.90;;;;;;4980240;29;20426;-45
2022/10/27 12:28:35;;;;;;;3.87;2.73;;;21.10;99.90;;;;;;4979764;28;20424;-42
2022/10/27 12:31:06;;;;;;;3.47;2.80;;;21.10;99.90;;;;;;4979697;29;20440;-51
2022/10/27 12:33:40;;;;;;;3.23;2.20;;;21.20;99.90;;;;;;4979985;29;20546;-50
2022/10/27 12:36:15;;;;;;;4.83;2.50;;;21.30;99.90;;;;;;4979414;29;20440;-45
2022/10/27 12:38:50;;;;;;;3.20;2.37;;;21.30;99.90;;;;;;4978950;29;20455;-43
2022/10/27 12:41:25;;;;;;;3.87;2.53;;;21.40;99.90;;;;;;4979744;29;20469;-45
2022/10/27 12:43:59;;;;;;;3.23;2.27;;;21.40;99.90;;;;;;4979361;29;20432;-47
2022/10/27 12:46:46;;;;;;;5.77;3.70;;;21.40;99.90;;;;;;4979136;29;20455;-43
2022/10/27 12:49:21;;;;;;;5.13;3.23;;;21.40;99.90;;;;;;4980160;29;20427;-51
2022/10/27 12:51:54;;;;;;;4.07;2.30;;;21.40;99.90;;;;;;4979097;29;20505;-47
2022/10/27 12:54:42;;;;;;;11.53;2.50;;;21.30;99.90;;;;;;4979893;29;20430;-46
2022/10/27 12:57:21;;;;;;;2.80;2.53;;;21.30;99.90;;;;;;4977786;29;20448;-44
2022/10/27 12:59:57;;;;;;;4.43;2.47;;;21.30;99.90;;;;;;4975658;29;20428;-47
2022/10/27 13:02:28;;;;;;;9.53;2.50;;;21.20;99.90;;;;;;4972218;29;20428;-47